OMFJ/FJR METAR and TAF weather

Enter ICAO airport designator
Station Type Date Time Source
OMFJ METAR 2023/02/05 13:00 UTC NOAA

OMFJ 051300Z 29014KT CAVOK 24/07 Q1013 A2994


Station Type Date Time Source
OMFJ Decoded METAR 2023/02/05 13:00 UTC NOAA

Fujairah, United Arab Emirates (OMFJ) 25-06N 056-20E 28M
Feb 05, 2023 - 08:00 AM EST / 2023.02.05 1300 UTC
Wind: from the WNW (290 degrees) at 16 MPH (14 KT):0
Visibility: greater than 7 mile(s):0
Temperature: 75 F (24 C)
Dew Point: 44 F (7 C)
Relative Humidity: 33%
Pressure (altimeter): 29.94 in. Hg (1013 hPa)
ob: OMFJ 051300Z 29014KT CAVOK 24/07 Q1013 A2994
cycle: 13

Station Type Date Time Source
OMFJ TAF 2023/02/05 12:03 UTC NOAA

TAF OMFJ 051100Z 0512/0618 29015KT 8000 NSC PROB30
TEMPO 0512/0522 30018G28KT 4000 BLDU
BECMG 0600/0602 24007KT
BECMG 0606/0608 09008KT

Example: see airport list